createdAt,value
2023-03-17T00:01:51.371Z,4.33
2023-03-17T00:04:19.632Z,4.30
2023-03-17T00:06:47.695Z,4.40
2023-03-17T00:09:17.212Z,4.50
2023-03-17T00:11:45.732Z,4.70
2023-03-17T00:14:13.037Z,5.60
2023-03-17T00:16:43.039Z,4.72
2023-03-17T00:19:16.684Z,5.53
2023-03-17T00:21:43.691Z,5.30
2023-03-17T00:24:14.901Z,4.53
2023-03-17T00:26:43.424Z,4.97
2023-03-17T00:29:10.801Z,5.07
2023-03-17T00:31:39.296Z,5.05
2023-03-17T00:34:08.140Z,4.90
2023-03-17T00:36:35.830Z,4.80
2023-03-17T00:39:06.010Z,4.67
2023-03-17T00:41:32.874Z,4.68
2023-03-17T00:44:00.112Z,4.55
2023-03-17T00:46:36.083Z,5.10
2023-03-17T00:51:44.921Z,5.70
2023-03-17T00:54:13.763Z,5.25
2023-03-17T00:56:41.725Z,4.88
2023-03-17T00:59:21.786Z,5.13
2023-03-17T01:01:49.408Z,5.53
2023-03-17T01:04:16.798Z,4.67
2023-03-17T01:06:43.662Z,5.00
2023-03-17T01:09:14.901Z,4.93
2023-03-17T01:11:42.233Z,4.68
2023-03-17T01:14:10.895Z,5.07
2023-03-17T01:16:38.890Z,4.90
2023-03-17T01:19:06.616Z,4.82
2023-03-17T01:21:33.692Z,4.45
2023-03-17T01:24:01.694Z,4.82
2023-03-17T01:26:28.717Z,4.13
2023-03-17T01:28:56.113Z,5.30
2023-03-17T01:31:24.448Z,5.95
2023-03-17T01:33:52.899Z,4.43
2023-03-17T01:36:20.765Z,4.32
2023-03-17T01:38:51.149Z,5.03
2023-03-17T01:41:20.835Z,4.97
2023-03-17T01:43:48.262Z,4.50
2023-03-17T01:46:23.218Z,4.18
2023-03-17T01:49:21.956Z,4.85
2023-03-17T01:51:57.726Z,4.80
2023-03-17T01:54:45.836Z,4.27
2023-03-17T01:57:18.964Z,4.32
2023-03-17T01:59:52.196Z,4.88
2023-03-17T02:02:25.744Z,4.68
2023-03-17T02:04:53.353Z,4.95
2023-03-17T02:07:22.314Z,4.53
2023-03-17T02:09:51.321Z,5.15
2023-03-17T02:12:22.679Z,4.75
2023-03-17T02:14:50.380Z,5.68
2023-03-17T02:17:19.118Z,6.18
2023-03-17T02:19:46.383Z,6.93
2023-03-17T02:22:13.552Z,6.43
2023-03-17T02:24:47.796Z,5.00
2023-03-17T02:27:19.781Z,4.38
2023-03-17T02:29:47.485Z,4.65
2023-03-17T02:32:18.291Z,4.10
2023-03-17T02:34:47.133Z,4.15
2023-03-17T02:37:18.815Z,4.38
2023-03-17T02:39:46.699Z,4.35
2023-03-17T02:42:14.134Z,5.40
2023-03-17T02:44:41.388Z,4.80
2023-03-17T02:47:08.774Z,5.80
2023-03-17T02:49:36.815Z,4.40
2023-03-17T02:52:04.213Z,4.55
2023-03-17T02:54:31.925Z,4.25
2023-03-17T02:56:59.915Z,5.00
2023-03-17T02:59:27.593Z,5.95
2023-03-17T03:01:56.218Z,5.65
2023-03-17T03:04:24.549Z,5.30
2023-03-17T03:06:51.734Z,4.72
2023-03-17T03:09:19.080Z,4.40
2023-03-17T03:11:46.160Z,5.20
2023-03-17T03:14:14.142Z,4.53
2023-03-17T03:16:41.213Z,5.50
2023-03-17T03:19:08.470Z,4.63
2023-03-17T03:21:36.833Z,4.07
2023-03-17T03:24:05.055Z,4.03
2023-03-17T03:26:32.022Z,4.13
2023-03-17T03:29:00.249Z,4.68
2023-03-17T03:31:27.802Z,4.93
2023-03-17T03:33:55.090Z,4.03
2023-03-17T03:36:22.631Z,4.57
2023-03-17T03:38:49.895Z,5.05
2023-03-17T03:41:16.750Z,4.88
2023-03-17T03:43:43.981Z,5.80
2023-03-17T03:46:11.249Z,4.70
2023-03-17T03:48:38.480Z,5.55
2023-03-17T03:51:05.901Z,5.65
2023-03-17T03:53:33.130Z,5.18
2023-03-17T03:55:59.975Z,4.53
2023-03-17T03:58:27.195Z,4.60
2023-03-17T04:00:54.149Z,5.22
2023-03-17T04:03:21.726Z,4.80
2023-03-17T04:05:48.688Z,4.65
2023-03-17T04:08:16.780Z,3.88
2023-03-17T04:10:43.604Z,4.40
2023-03-17T04:13:10.890Z,4.10
2023-03-17T04:15:37.760Z,6.72
2023-03-17T04:18:05.458Z,7.18
2023-03-17T04:20:33.073Z,6.80
2023-03-17T04:23:00.631Z,6.33
2023-03-17T04:25:27.745Z,7.35
2023-03-17T04:27:55.054Z,6.85
2023-03-17T04:30:22.283Z,7.40
2023-03-17T04:32:49.590Z,7.10
2023-03-17T04:35:21.662Z,7.90
2023-03-17T04:37:49.915Z,7.82
2023-03-17T04:40:18.801Z,7.55
2023-03-17T04:42:46.107Z,7.53
2023-03-17T04:45:17.435Z,7.85
2023-03-17T04:47:46.332Z,6.70
2023-03-17T04:50:14.112Z,7.15
2023-03-17T04:52:41.344Z,6.53
2023-03-17T04:55:08.604Z,6.95
2023-03-17T04:57:36.781Z,7.80
2023-03-17T05:00:07.720Z,5.80
2023-03-17T05:02:35.392Z,5.47
2023-03-17T05:05:02.903Z,5.70
2023-03-17T05:07:32.820Z,4.72
2023-03-17T05:10:01.034Z,6.25
2023-03-17T05:12:28.254Z,6.60
2023-03-17T05:14:55.613Z,6.28
2023-03-17T05:17:22.895Z,6.97
2023-03-17T05:19:49.770Z,6.90
2023-03-17T05:22:17.087Z,6.57
2023-03-17T05:24:44.158Z,6.60
2023-03-17T05:27:11.606Z,6.43
2023-03-17T05:29:38.902Z,6.25
2023-03-17T05:32:06.688Z,6.63
2023-03-17T05:34:33.768Z,4.93
2023-03-17T05:37:01.469Z,4.13
2023-03-17T05:39:28.723Z,6.07
2023-03-17T05:42:09.774Z,7.05
2023-03-17T05:44:36.821Z,6.65
2023-03-17T05:47:04.261Z,7.00
2023-03-17T05:49:31.297Z,6.83
2023-03-17T05:51:58.974Z,5.00
2023-03-17T05:54:26.112Z,4.88
2023-03-17T05:56:53.370Z,4.93
2023-03-17T05:59:20.780Z,5.10
2023-03-17T06:01:48.004Z,3.50
2023-03-17T06:04:15.468Z,3.58
2023-03-17T06:06:42.705Z,5.18
2023-03-17T06:09:09.652Z,7.65
2023-03-17T06:11:37.040Z,6.43
2023-03-17T06:14:04.310Z,6.87
2023-03-17T06:16:33.393Z,6.07
2023-03-17T06:19:00.485Z,6.70
2023-03-17T06:21:27.932Z,6.82
2023-03-17T06:23:54.790Z,7.65
2023-03-17T06:26:22.133Z,6.10
2023-03-17T06:28:49.062Z,6.20
2023-03-17T06:31:16.347Z,5.85
2023-03-17T06:33:43.946Z,5.45
2023-03-17T06:36:11.784Z,5.85
2023-03-17T06:38:39.471Z,5.63
2023-03-17T06:41:06.736Z,5.53
2023-03-17T06:43:33.589Z,5.05
2023-03-17T06:46:01.501Z,5.75
2023-03-17T06:48:28.885Z,6.28
2023-03-17T06:50:56.342Z,6.25
2023-03-17T06:53:23.201Z,6.07
2023-03-17T06:55:50.596Z,6.00
2023-03-17T06:58:17.499Z,5.15
2023-03-17T07:00:45.665Z,5.45
2023-03-17T07:03:12.860Z,6.00
2023-03-17T07:05:40.384Z,6.30
2023-03-17T07:08:08.209Z,5.43
2023-03-17T07:10:36.882Z,5.90
2023-03-17T07:13:05.266Z,5.45
2023-03-17T07:15:35.158Z,5.20
2023-03-17T07:18:02.514Z,6.30
2023-03-17T07:20:30.462Z,5.88
2023-03-17T07:22:58.153Z,5.35
2023-03-17T07:25:25.400Z,5.55
2023-03-17T07:27:52.956Z,6.03
2023-03-17T07:30:20.718Z,6.67
2023-03-17T07:32:48.606Z,6.03
2023-03-17T07:35:16.220Z,6.75
2023-03-17T07:37:43.166Z,6.10
2023-03-17T07:40:11.044Z,5.43
2023-03-17T07:42:37.898Z,5.50
2023-03-17T07:45:06.250Z,5.90
2023-03-17T07:47:33.196Z,6.63
2023-03-17T07:50:00.427Z,6.95
2023-03-17T07:52:27.305Z,6.63
2023-03-17T07:54:56.036Z,5.90
2023-03-17T07:57:23.054Z,7.30
2023-03-17T07:59:50.880Z,6.97
2023-03-17T08:02:19.649Z,7.10
2023-03-17T08:04:47.628Z,6.40
2023-03-17T08:07:15.716Z,5.53
2023-03-17T08:09:43.170Z,6.95
2023-03-17T08:12:10.624Z,6.93
2023-03-17T08:14:37.897Z,6.55
2023-03-17T08:17:05.092Z,6.60
2023-03-17T08:19:32.347Z,6.90
2023-03-17T08:21:59.483Z,7.53
2023-03-17T08:24:27.209Z,6.40
2023-03-17T08:26:54.327Z,6.47
2023-03-17T08:29:21.626Z,6.57
2023-03-17T08:31:48.494Z,6.43
2023-03-17T08:34:16.694Z,5.57
2023-03-17T08:36:43.865Z,6.53
2023-03-17T08:39:11.333Z,6.57
2023-03-17T08:41:38.804Z,5.65
2023-03-17T08:44:08.907Z,5.43
2023-03-17T08:46:36.952Z,5.88
2023-03-17T08:49:04.643Z,5.70
2023-03-17T08:51:34.839Z,6.22
2023-03-17T08:54:02.572Z,5.40
2023-03-17T08:56:29.964Z,5.50
2023-03-17T08:58:57.265Z,6.10
2023-03-17T09:01:24.695Z,6.30
2023-03-17T09:03:53.805Z,5.90
2023-03-17T09:06:22.328Z,6.47
2023-03-17T09:08:55.485Z,5.70
2023-03-17T09:11:26.665Z,6.55
2023-03-17T09:13:54.837Z,6.22
2023-03-17T09:16:24.208Z,6.20
2023-03-17T09:18:51.922Z,7.25
2023-03-17T09:21:18.961Z,7.00
2023-03-17T09:23:47.100Z,6.20
2023-03-17T09:26:14.311Z,7.15
2023-03-17T09:28:42.858Z,6.97
2023-03-17T09:31:12.456Z,7.53
2023-03-17T09:33:40.845Z,7.00
2023-03-17T09:36:08.722Z,6.50
2023-03-17T09:38:37.436Z,6.93
2023-03-17T09:41:16.415Z,6.25
2023-03-17T09:44:08.890Z,5.45
2023-03-17T09:46:53.761Z,7.50
2023-03-17T09:49:25.680Z,7.75
2023-03-17T09:51:53.385Z,7.25
2023-03-17T09:54:27.705Z,7.30
2023-03-17T09:57:12.794Z,6.22
2023-03-17T09:59:46.078Z,7.40
2023-03-17T10:02:24.685Z,7.57
2023-03-17T10:04:52.048Z,6.72
2023-03-17T10:07:41.127Z,7.78
2023-03-17T10:10:20.175Z,8.50
2023-03-17T10:13:19.209Z,7.23
2023-03-17T10:15:54.229Z,7.63
2023-03-17T10:18:27.308Z,7.60
2023-03-17T10:20:59.589Z,6.88
2023-03-17T10:23:31.812Z,6.65
2023-03-17T10:26:14.852Z,6.47
2023-03-17T10:28:42.608Z,6.82
2023-03-17T10:31:18.309Z,6.32
2023-03-17T10:33:49.812Z,7.40
2023-03-17T10:36:31.787Z,7.72
2023-03-17T10:38:58.942Z,5.90
2023-03-17T10:41:30.026Z,6.07
2023-03-17T10:43:57.948Z,6.20
2023-03-17T10:46:26.637Z,6.68
2023-03-17T10:48:57.102Z,7.05
2023-03-17T10:51:32.961Z,6.10
2023-03-17T10:54:02.367Z,5.40
2023-03-17T10:56:36.417Z,6.13
2023-03-17T10:59:14.984Z,5.45
2023-03-17T11:01:50.031Z,5.90
2023-03-17T11:04:40.204Z,6.30
2023-03-17T11:07:31.459Z,6.20
2023-03-17T11:10:02.946Z,7.10
2023-03-17T11:12:39.525Z,6.15
2023-03-17T11:15:20.205Z,6.40
2023-03-17T11:17:59.542Z,7.93
2023-03-17T11:20:43.412Z,6.82
2023-03-17T11:23:47.908Z,6.40
2023-03-17T11:26:46.351Z,6.18
2023-03-17T11:29:41.289Z,6.88
2023-03-17T11:32:25.430Z,6.57
2023-03-17T11:35:03.819Z,5.53
2023-03-17T11:37:59.300Z,5.70
2023-03-17T11:40:36.279Z,5.07
2023-03-17T11:43:28.444Z,5.07
2023-03-17T11:46:13.935Z,4.87
2023-03-17T11:48:59.658Z,5.88
2023-03-17T11:51:51.616Z,6.30
2023-03-17T11:54:36.927Z,6.45
2023-03-17T11:57:12.072Z,5.82
2023-03-17T11:59:49.837Z,6.23
2023-03-17T12:02:28.739Z,6.28
2023-03-17T12:05:05.286Z,7.03
2023-03-17T12:07:58.615Z,5.50
2023-03-17T12:10:56.618Z,6.05
2023-03-17T12:13:29.435Z,7.03
2023-03-17T12:16:11.403Z,6.55
2023-03-17T12:18:58.118Z,6.50
2023-03-17T12:21:34.350Z,5.28
2023-03-17T12:24:17.376Z,6.82
2023-03-17T12:27:06.018Z,5.60
2023-03-17T12:29:43.242Z,5.18
2023-03-17T12:32:27.999Z,6.57
2023-03-17T12:35:05.287Z,5.60
2023-03-17T12:37:33.205Z,5.93
2023-03-17T12:40:07.347Z,5.83
2023-03-17T12:42:40.306Z,6.15
2023-03-17T12:45:29.281Z,5.40
2023-03-17T12:48:30.514Z,5.78
2023-03-17T12:51:31.170Z,5.60
2023-03-17T12:54:00.293Z,4.87
2023-03-17T12:56:30.886Z,6.78
2023-03-17T12:59:07.264Z,5.78
2023-03-17T13:01:40.571Z,6.85
2023-03-17T13:04:15.540Z,5.60
2023-03-17T13:06:46.473Z,5.20
2023-03-17T13:09:33.607Z,4.80
2023-03-17T13:12:02.045Z,5.38
2023-03-17T13:14:41.369Z,5.03
2023-03-17T13:17:11.730Z,5.40
2023-03-17T13:19:55.765Z,5.60
2023-03-17T13:22:23.024Z,5.22
2023-03-17T13:24:52.034Z,5.95
2023-03-17T13:27:34.661Z,5.43
2023-03-17T13:30:26.981Z,4.88
2023-03-17T13:33:09.938Z,6.33
2023-03-17T13:35:37.900Z,5.68
2023-03-17T13:38:31.050Z,5.47
2023-03-17T13:41:28.102Z,5.28
2023-03-17T13:44:17.221Z,4.97
2023-03-17T13:46:46.930Z,4.67
2023-03-17T13:49:26.753Z,5.75
2023-03-17T13:52:03.622Z,6.25
2023-03-17T13:54:40.692Z,6.50
2023-03-17T13:57:40.644Z,5.82
2023-03-17T14:00:15.234Z,5.90
2023-03-17T14:02:43.450Z,4.82
2023-03-17T14:05:27.606Z,4.93
2023-03-17T14:08:16.620Z,5.00
2023-03-17T14:10:54.179Z,4.70
2023-03-17T14:13:25.479Z,5.40
2023-03-17T14:16:04.719Z,6.30
2023-03-17T14:18:38.075Z,5.80
2023-03-17T14:21:11.714Z,5.50
2023-03-17T14:23:38.702Z,7.60
2023-03-17T14:26:11.011Z,6.73
2023-03-17T14:28:38.132Z,7.20
2023-03-17T14:31:07.516Z,6.00
2023-03-17T14:33:40.585Z,5.85
2023-03-17T14:36:14.183Z,5.47
2023-03-17T14:38:54.363Z,6.20
2023-03-17T14:41:28.885Z,5.22
2023-03-17T14:44:00.605Z,5.10
2023-03-17T14:46:32.882Z,5.85
2023-03-17T14:49:04.707Z,5.65
2023-03-17T14:51:37.918Z,5.30
2023-03-17T14:54:14.390Z,5.20
2023-03-17T14:56:46.713Z,5.00
2023-03-17T14:59:27.237Z,5.35
2023-03-17T15:01:57.192Z,6.07
2023-03-17T15:04:26.329Z,5.10
2023-03-17T15:06:56.188Z,5.15
2023-03-17T15:09:37.886Z,5.57
2023-03-17T15:12:23.349Z,5.20
2023-03-17T15:14:54.228Z,4.10
2023-03-17T15:17:32.930Z,4.50
2023-03-17T15:20:14.282Z,4.70
2023-03-17T15:22:44.215Z,4.65
2023-03-17T15:25:23.680Z,4.38
2023-03-17T15:27:52.064Z,4.80
2023-03-17T15:30:19.400Z,4.93
2023-03-17T15:32:52.668Z,4.78
2023-03-17T15:35:19.642Z,5.00
2023-03-17T15:37:46.961Z,4.70
2023-03-17T15:40:13.987Z,4.25
2023-03-17T15:42:42.752Z,4.03
2023-03-17T15:45:10.411Z,3.80
2023-03-17T15:47:40.045Z,3.83
2023-03-17T15:50:25.876Z,3.75
2023-03-17T15:52:56.386Z,3.83
2023-03-17T15:55:29.876Z,3.50
2023-03-17T15:57:58.544Z,3.67
2023-03-17T16:00:30.058Z,4.15
2023-03-17T16:03:02.233Z,3.70
2023-03-17T16:05:33.882Z,4.10
2023-03-17T16:08:01.128Z,4.10
2023-03-17T16:10:30.649Z,4.85
2023-03-17T16:12:58.587Z,3.63
2023-03-17T16:15:28.279Z,6.25
2023-03-17T16:17:59.389Z,6.80
2023-03-17T16:20:32.646Z,4.57
2023-03-17T16:23:07.619Z,7.88
2023-03-17T16:25:34.705Z,4.55
2023-03-17T16:28:08.105Z,5.47
2023-03-17T16:30:34.924Z,4.05
2023-03-17T16:33:09.451Z,3.97
2023-03-17T16:35:36.371Z,3.80
2023-03-17T16:38:03.576Z,3.92
2023-03-17T16:40:38.345Z,3.42
2023-03-17T16:43:19.089Z,3.92
2023-03-17T16:45:52.691Z,3.67
2023-03-17T16:48:20.478Z,3.70
2023-03-17T16:50:47.626Z,3.33
2023-03-17T16:53:14.973Z,3.20
2023-03-17T16:55:42.120Z,3.38
2023-03-17T16:58:21.339Z,3.20
2023-03-17T17:00:50.286Z,3.30
2023-03-17T17:03:17.779Z,2.95
2023-03-17T17:05:45.456Z,3.30
2023-03-17T17:08:12.713Z,3.30
2023-03-17T17:10:40.085Z,2.60
2023-03-17T17:13:08.369Z,3.08
2023-03-17T17:15:36.514Z,3.00
2023-03-17T17:18:18.373Z,3.40
2023-03-17T17:20:46.280Z,3.67
2023-03-17T17:23:16.641Z,4.23
2023-03-17T17:25:44.071Z,3.17
2023-03-17T17:28:12.491Z,3.80
2023-03-17T17:30:43.030Z,3.60
2023-03-17T17:33:11.004Z,3.75
2023-03-17T17:35:38.728Z,3.60
2023-03-17T17:38:13.249Z,3.58
2023-03-17T17:40:40.117Z,3.58
2023-03-17T17:43:09.663Z,3.25
2023-03-17T17:45:36.797Z,3.72
2023-03-17T17:48:04.540Z,3.13
2023-03-17T17:50:31.980Z,3.20
2023-03-17T17:53:05.087Z,3.20
2023-03-17T17:55:33.793Z,3.38
2023-03-17T17:58:01.236Z,3.40
2023-03-17T18:00:28.315Z,3.37
2023-03-17T18:02:55.885Z,3.55
2023-03-17T18:05:22.706Z,3.40
2023-03-17T18:07:50.251Z,3.70
2023-03-17T18:10:22.495Z,3.55
2023-03-17T18:12:49.900Z,3.50
2023-03-17T18:15:17.019Z,3.15
2023-03-17T18:17:44.271Z,3.35
2023-03-17T18:20:17.504Z,3.15
2023-03-17T18:22:45.669Z,3.50
2023-03-17T18:25:15.376Z,3.43
2023-03-17T18:27:43.546Z,3.83
2023-03-17T18:30:13.590Z,3.95
2023-03-17T18:32:43.102Z,4.22
2023-03-17T18:35:15.937Z,3.60
2023-03-17T18:37:43.960Z,4.00
2023-03-17T18:40:17.269Z,4.25
2023-03-17T18:42:45.882Z,7.70
2023-03-17T18:45:13.666Z,10.52
2023-03-17T18:47:42.106Z,7.93
2023-03-17T18:50:12.146Z,5.80
2023-03-17T18:52:41.231Z,5.20
2023-03-17T18:55:09.028Z,4.18
2023-03-17T18:57:36.838Z,3.70
2023-03-17T19:00:05.870Z,4.13
2023-03-17T19:02:33.445Z,4.60
2023-03-17T19:05:00.965Z,4.28
2023-03-17T19:07:28.169Z,4.07
2023-03-17T19:09:55.200Z,5.32
2023-03-17T19:12:22.372Z,5.50
2023-03-17T19:14:49.492Z,4.77
2023-03-17T19:17:16.968Z,4.53
2023-03-17T19:19:43.872Z,4.35
2023-03-17T19:22:11.205Z,4.30
2023-03-17T19:24:38.102Z,4.57
2023-03-17T19:27:05.665Z,5.70
2023-03-17T19:29:33.511Z,5.45
2023-03-17T19:32:00.804Z,8.05
2023-03-17T19:34:28.039Z,6.97
2023-03-17T19:36:55.680Z,6.65
2023-03-17T19:39:22.585Z,6.30
2023-03-17T19:41:53.307Z,7.25
2023-03-17T19:44:20.124Z,6.47
2023-03-17T19:46:48.305Z,5.40
2023-03-17T19:49:15.998Z,6.63
2023-03-17T19:51:43.507Z,5.90
2023-03-17T19:54:11.308Z,6.60
2023-03-17T19:56:39.019Z,6.05
2023-03-17T19:59:07.492Z,5.55
2023-03-17T20:01:37.879Z,7.50
2023-03-17T20:04:07.086Z,6.80
2023-03-17T20:06:34.810Z,7.53
2023-03-17T20:09:04.341Z,6.78
2023-03-17T20:11:34.130Z,6.00
2023-03-17T20:14:01.960Z,6.20
2023-03-17T20:16:32.805Z,7.20
2023-03-17T20:19:01.430Z,6.38
2023-03-17T20:21:28.818Z,6.45
2023-03-17T20:23:56.424Z,6.65
2023-03-17T20:26:24.624Z,6.93
2023-03-17T20:28:53.915Z,5.83
2023-03-17T20:31:21.670Z,5.85
2023-03-17T20:33:48.494Z,5.68
2023-03-17T20:36:15.697Z,6.28
2023-03-17T20:38:43.950Z,7.07
2023-03-17T20:41:14.123Z,7.63
2023-03-17T20:43:41.869Z,6.22
2023-03-17T20:46:15.186Z,6.13
2023-03-17T20:48:42.532Z,6.13
2023-03-17T20:51:16.455Z,6.78
2023-03-17T20:53:44.800Z,7.57
2023-03-17T20:56:22.338Z,6.78
2023-03-17T20:58:50.361Z,5.60
2023-03-17T21:01:20.452Z,6.40
2023-03-17T21:03:48.244Z,7.03
2023-03-17T21:06:15.918Z,6.60
2023-03-17T21:08:42.746Z,7.45
2023-03-17T21:11:16.322Z,6.70
2023-03-17T21:13:44.353Z,6.25
2023-03-17T21:16:20.560Z,6.30
2023-03-17T21:18:48.540Z,6.03
2023-03-17T21:21:16.704Z,6.55
2023-03-17T21:23:43.736Z,7.50
2023-03-17T21:26:11.232Z,10.90
2023-03-17T21:28:41.403Z,11.32
2023-03-17T21:31:10.602Z,10.83
2023-03-17T21:33:38.010Z,10.20
2023-03-17T21:36:06.227Z,8.35
2023-03-17T21:38:33.150Z,9.35
2023-03-17T21:41:37.975Z,9.20
2023-03-17T21:44:06.377Z,6.53
2023-03-17T21:46:34.056Z,9.65
2023-03-17T21:49:01.579Z,8.60
2023-03-17T21:51:28.695Z,8.95
2023-03-17T21:53:57.590Z,8.73
2023-03-17T21:56:24.973Z,8.83
2023-03-17T21:58:51.949Z,7.30
2023-03-17T22:01:21.869Z,7.47
2023-03-17T22:03:49.994Z,8.55
2023-03-17T22:06:17.544Z,7.30
2023-03-17T22:08:45.848Z,7.07
2023-03-17T22:11:15.506Z,6.03
2023-03-17T22:13:43.089Z,6.38
2023-03-17T22:16:11.284Z,6.10
2023-03-17T22:18:38.751Z,6.07
2023-03-17T22:21:06.406Z,5.17
2023-03-17T22:23:39.685Z,5.47
2023-03-17T22:26:14.784Z,5.32
2023-03-17T22:28:43.779Z,5.25
2023-03-17T22:31:17.155Z,5.30
2023-03-17T22:33:44.264Z,5.07
2023-03-17T22:36:11.619Z,5.35
2023-03-17T22:38:38.647Z,5.80
2023-03-17T22:41:12.062Z,5.78
2023-03-17T22:43:40.229Z,8.18
2023-03-17T22:46:08.013Z,9.07
2023-03-17T22:48:36.166Z,8.35
2023-03-17T22:51:06.707Z,8.40
2023-03-17T22:53:34.504Z,8.15
2023-03-17T22:56:02.635Z,9.50
2023-03-17T22:58:29.661Z,8.33
2023-03-17T23:00:57.307Z,7.00
2023-03-17T23:03:26.130Z,6.03
2023-03-17T23:05:57.238Z,8.32
2023-03-17T23:08:24.238Z,9.85
2023-03-17T23:10:52.030Z,9.17
2023-03-17T23:13:20.640Z,9.80
2023-03-17T23:15:48.913Z,9.35
2023-03-17T23:18:16.210Z,10.02
2023-03-17T23:20:43.688Z,10.63
2023-03-17T23:23:12.404Z,10.57
2023-03-17T23:25:39.903Z,9.13
2023-03-17T23:28:07.708Z,9.70
2023-03-17T23:30:35.822Z,9.70
2023-03-17T23:33:05.004Z,9.55
2023-03-17T23:35:32.443Z,8.17
2023-03-17T23:38:00.397Z,9.38
2023-03-17T23:40:27.517Z,9.18
2023-03-17T23:42:55.238Z,9.38
2023-03-17T23:45:23.340Z,9.52
2023-03-17T23:47:52.216Z,9.33
2023-03-17T23:50:21.059Z,7.93
2023-03-17T23:52:48.243Z,6.38
2023-03-17T23:55:16.866Z,5.43
2023-03-17T23:57:44.849Z,5.55
